Time;durP1;ratioP1;P1;durP2;ratioP2;P2;SDS_P1;SDS_P2;PMS_P1;PMS_P2;Temp;Humidity;BMP_temperature;BMP_pressure;BME280_temperature;BME280_humidity;BME280_pressure;Samples;Min_cycle;Max_cycle;Signal;HPM_P1;HPM_P2
2022/08/05 00:01:33;;;;;;;4.50;1.80;;;;;;;27.10;44.69;100164.53;5101270;28;20044;-65
2022/08/05 00:03:58;;;;;;;4.03;2.08;;;;;;;27.18;43.80;100165.91;5084886;28;20119;-65
2022/08/05 00:06:24;;;;;;;6.10;2.30;;;;;;;27.16;44.26;100162.66;5085448;28;20113;-65
2022/08/05 00:08:49;;;;;;;3.67;2.00;;;;;;;27.20;44.79;100178.16;5078331;28;20275;-65
2022/08/05 00:11:14;;;;;;;4.63;2.13;;;;;;;27.16;44.88;100187.06;5087636;28;20071;-64
2022/08/05 00:13:41;;;;;;;5.30;2.47;;;;;;;27.09;45.72;100184.63;5081667;28;20347;-64
2022/08/05 00:16:09;;;;;;;4.15;2.00;;;;;;;27.06;46.54;100182.47;5080550;28;20029;-66
2022/08/05 00:18:36;;;;;;;6.38;2.08;;;;;;;27.03;46.55;100182.97;5075722;28;20033;-65
2022/08/05 00:21:01;;;;;;;4.97;2.40;;;;;;;26.96;47.39;100185.97;5111237;28;20039;-65
2022/08/05 00:23:26;;;;;;;7.80;2.40;;;;;;;26.88;47.91;100191.91;5094255;28;20067;-64
2022/08/05 00:25:52;;;;;;;9.63;2.75;;;;;;;26.85;47.80;100187.84;5076674;28;20067;-65
2022/08/05 00:28:17;;;;;;;5.47;2.30;;;;;;;26.85;47.81;100198.69;5080536;28;20036;-65
2022/08/05 00:30:43;;;;;;;8.13;2.40;;;;;;;26.76;48.56;100203.00;5079531;28;20055;-65
2022/08/05 00:33:08;;;;;;;7.03;3.00;;;;;;;26.62;49.73;100204.59;5089025;28;20039;-65
2022/08/05 00:35:34;;;;;;;8.25;3.00;;;;;;;26.60;49.89;100210.31;5081316;28;20083;-64
2022/08/05 00:38:00;;;;;;;5.10;2.90;;;;;;;26.57;50.54;100201.88;5083447;28;20116;-65
2022/08/05 00:40:26;;;;;;;9.15;3.03;;;;;;;26.51;50.77;100190.16;5083464;28;20185;-64
2022/08/05 00:42:51;;;;;;;4.28;2.40;;;;;;;26.56;50.39;100192.13;5083334;28;20539;-64
2022/08/05 00:45:16;;;;;;;7.57;3.20;;;;;;;26.52;50.68;100194.50;5077993;28;20123;-65
2022/08/05 00:47:42;;;;;;;6.45;2.60;;;;;;;26.47;51.27;100195.28;5078652;28;20076;-65
2022/08/05 00:50:08;;;;;;;5.75;3.20;;;;;;;26.40;51.79;100193.91;5080189;28;20029;-65
2022/08/05 00:52:33;;;;;;;8.85;3.33;;;;;;;26.42;51.77;100192.56;5080849;28;20036;-65
2022/08/05 00:54:58;;;;;;;10.02;3.53;;;;;;;26.40;52.01;100189.31;5075346;28;20051;-65
2022/08/05 00:57:24;;;;;;;9.05;3.50;;;;;;;26.34;52.63;100189.53;5079959;28;20040;-64
2022/08/05 00:59:49;;;;;;;12.50;4.00;;;;;;;26.29;52.72;100187.66;5067258;28;20037;-64
2022/08/05 01:02:15;;;;;;;7.90;3.42;;;;;;;26.31;52.20;100190.88;5079490;28;20493;-64
2022/08/05 01:04:40;;;;;;;8.48;3.30;;;;;;;26.28;52.37;100178.69;5085313;28;20119;-64
2022/08/05 01:07:05;;;;;;;8.65;3.60;;;;;;;26.31;51.99;100165.69;5081427;28;20039;-64
2022/08/05 01:09:31;;;;;;;10.10;4.20;;;;;;;26.22;52.78;100185.16;5083162;28;20116;-64
2022/08/05 01:12:01;;;;;;;6.40;3.72;;;;;;;26.21;52.58;100163.75;5080920;28;20526;-64
2022/08/05 01:14:30;;;;;;;8.27;3.60;;;;;;;26.14;53.07;100153.13;5075607;28;20037;-65
2022/08/05 01:17:01;;;;;;;8.10;4.13;;;;;;;26.14;52.84;100138.78;5080313;28;20039;-64
2022/08/05 01:19:35;;;;;;;7.60;3.58;;;;;;;26.11;52.91;100117.63;5079081;28;20064;-64
2022/08/05 01:22:31;;;;;;;6.75;3.55;;;;;;;26.10;53.22;100091.59;5076410;28;20503;-64
2022/08/05 01:25:28;;;;;;;7.18;3.55;;;;;;;26.15;52.61;100078.06;5083746;28;20563;-64
2022/08/05 01:28:12;;;;;;;5.68;3.70;;;;;;;26.19;52.12;100085.41;5081775;28;21942;-64
2022/08/05 01:30:45;;;;;;;5.65;3.63;;;;;;;26.25;51.75;100091.66;5087377;28;20048;-64
2022/08/05 01:33:14;;;;;;;4.78;3.35;;;;;;;26.30;51.22;100099.00;5061337;28;20035;-65
2022/08/05 01:35:44;;;;;;;6.18;3.58;;;;;;;26.37;50.86;100100.38;5072692;28;20501;-64
2022/08/05 01:38:12;;;;;;;5.30;2.88;;;;;;;26.45;50.75;100107.16;5077190;28;20484;-65
2022/08/05 01:40:39;;;;;;;5.40;3.08;;;;;;;26.44;50.68;100106.34;5084115;28;20063;-64
2022/08/05 01:43:05;;;;;;;4.75;3.20;;;;;;;26.49;50.05;100105.56;5080727;28;20040;-65
2022/08/05 01:45:32;;;;;;;5.07;2.83;;;;;;;26.53;49.76;100092.25;5072797;28;20111;-65
2022/08/05 01:48:00;;;;;;;5.65;2.90;;;;;;;26.56;50.06;100075.50;5081533;28;20047;-64
2022/08/05 01:50:25;;;;;;;4.13;2.78;;;;;;;26.58;49.74;100076.06;5083012;28;20550;-65
2022/08/05 01:52:53;;;;;;;3.23;2.40;;;;;;;26.61;49.68;100078.22;5084051;28;20040;-65
2022/08/05 01:55:21;;;;;;;7.28;2.92;;;;;;;26.61;49.82;100075.50;5081299;28;20039;-65
2022/08/05 01:57:47;;;;;;;6.70;3.42;;;;;;;26.68;49.48;100068.72;5085684;28;20051;-64
2022/08/05 02:00:13;;;;;;;5.20;3.10;;;;;;;26.73;50.04;100062.50;5085970;28;20036;-64
2022/08/05 02:02:47;;;;;;;6.55;3.60;;;;;;;26.76;49.96;100056.53;5082174;28;20135;-64
2022/08/05 02:05:14;;;;;;;8.45;4.20;;;;;;;26.75;49.89;100046.78;5080059;28;20107;-64
2022/08/05 02:07:42;;;;;;;7.15;3.85;;;;;;;26.74;49.60;100049.75;5079560;28;20044;-64
2022/08/05 02:10:08;;;;;;;;;;;;;;;26.65;49.88;100060.34;5081466;28;20040;-64
2022/08/05 02:12:41;;;;;;;9.65;3.30;;;;;;;26.69;49.88;100070.34;5087559;28;19961;-64
2022/08/05 02:15:18;;;;;;;5.28;3.13;;;;;;;26.67;49.91;100063.56;5087595;28;20047;-65
2022/08/05 02:17:50;;;;;;;5.78;3.10;;;;;;;26.65;49.46;100063.06;5072541;28;20033;-64
2022/08/05 02:20:21;;;;;;;5.32;2.88;;;;;;;26.64;49.83;100064.13;5080338;28;20036;-64
2022/08/05 02:22:53;;;;;;;7.15;3.10;;;;;;;26.68;49.42;100079.59;5081754;28;20059;-64
2022/08/05 02:25:25;;;;;;;7.22;3.40;;;;;;;26.68;49.50;100092.34;5082246;28;20089;-65
2022/08/05 02:27:50;;;;;;;5.13;2.70;;;;;;;26.68;49.30;100108.59;5077552;28;20121;-64
2022/08/05 02:30:17;;;;;;;4.40;2.88;;;;;;;26.63;49.69;100114.84;5080712;28;20032;-64
2022/08/05 02:32:46;;;;;;;5.18;3.17;;;;;;;26.59;49.56;100123.78;5079785;28;20036;-63
2022/08/05 02:35:15;;;;;;;5.35;2.85;;;;;;;26.63;49.21;100116.75;5077650;28;20043;-64
2022/08/05 02:37:43;;;;;;;3.22;2.40;;;;;;;26.68;48.83;100103.19;5078702;28;20090;-64
2022/08/05 02:40:09;;;;;;;4.38;2.38;;;;;;;26.72;48.73;100107.00;5077945;28;20032;-64
2022/08/05 02:42:35;;;;;;;2.72;2.20;;;;;;;26.69;48.56;100110.22;5077233;28;20400;-64
2022/08/05 02:45:02;;;;;;;4.78;2.10;;;;;;;26.66;48.72;100121.63;5079661;28;20089;-64
2022/08/05 02:47:30;;;;;;;5.00;2.30;;;;;;;26.59;48.93;100124.59;5081070;28;20032;-64
2022/08/05 02:49:56;;;;;;;4.05;2.47;;;;;;;26.53;49.22;100131.06;5082193;28;20404;-64
2022/08/05 02:52:22;;;;;;;4.32;2.55;;;;;;;26.50;49.24;100142.41;5080881;28;20048;-64
2022/08/05 02:54:49;;;;;;;3.72;2.20;;;;;;;26.47;48.95;100143.78;5075812;28;20119;-64
2022/08/05 02:57:18;;;;;;;3.40;2.42;;;;;;;26.41;49.64;100142.16;5085174;28;20028;-64
2022/08/05 02:59:48;;;;;;;5.32;2.38;;;;;;;26.38;49.36;100139.13;5078448;28;20033;-64
2022/08/05 03:02:17;;;;;;;3.33;2.50;;;;;;;26.33;49.52;100123.66;5082935;28;20040;-64
2022/08/05 03:04:44;;;;;;;3.33;2.28;;;;;;;26.30;49.77;100126.91;5081404;28;20316;-64
2022/08/05 03:07:10;;;;;;;3.45;2.40;;;;;;;26.24;49.64;100131.53;5080592;28;20449;-64
2022/08/05 03:09:36;;;;;;;5.50;2.67;;;;;;;26.19;50.00;100141.50;5079686;28;20060;-65
2022/08/05 03:12:01;;;;;;;3.72;2.40;;;;;;;26.16;49.97;100140.16;5084770;28;20540;-64
2022/08/05 03:14:26;;;;;;;3.67;2.35;;;;;;;26.13;49.91;100137.97;5079471;28;20040;-64
2022/08/05 03:16:52;;;;;;;3.55;2.25;;;;;;;26.13;50.03;100154.22;5078479;28;20119;-64
2022/08/05 03:19:18;;;;;;;3.85;2.50;;;;;;;26.06;50.69;100170.72;5081815;28;20032;-64
2022/08/05 03:21:43;;;;;;;3.58;2.20;;;;;;;26.03;50.56;100167.75;5084749;28;20039;-63
2022/08/05 03:24:09;;;;;;;3.50;2.13;;;;;;;25.97;50.78;100175.00;5075498;28;20064;-64
2022/08/05 03:26:35;;;;;;;4.32;2.40;;;;;;;25.87;51.29;100191.22;5072784;28;20493;-64
2022/08/05 03:29:00;;;;;;;3.40;2.30;;;;;;;25.82;51.32;100183.84;5078158;28;20051;-64
2022/08/05 03:31:26;;;;;;;4.50;2.30;;;;;;;25.67;51.57;100153.13;5082736;28;20033;-64
2022/08/05 03:33:52;;;;;;;3.72;2.60;;;;;;;25.57;51.95;100133.00;5080238;28;20447;-64
2022/08/05 03:36:17;;;;;;;4.30;3.03;;;;;;;25.54;52.61;100109.19;5077172;28;20032;-64
2022/08/05 03:38:43;;;;;;;5.03;2.88;;;;;;;25.66;52.53;100081.09;5079977;28;20369;-64
2022/08/05 03:41:09;;;;;;;5.63;3.30;;;;;;;25.67;53.25;100098.97;5083332;28;20040;-64
2022/08/05 03:43:34;;;;;;;6.43;3.13;;;;;;;24.83;56.61;100182.44;5082789;28;20036;-64
2022/08/05 03:46:00;;;;;;;7.82;3.20;;;;;;;24.13;59.43;100219.94;5080003;28;20091;-64
2022/08/05 03:48:26;;;;;;;6.47;3.15;;;;;;;24.20;60.21;100248.69;5076679;28;20089;-64
2022/08/05 03:50:58;;;;;;;7.57;3.10;;;;;;;24.59;57.97;100233.25;5073648;28;20066;-64
2022/08/05 03:53:47;;;;;;;3.95;2.83;;;;;;;24.86;57.48;100246.00;5082973;28;20038;-64
2022/08/05 03:56:45;;;;;;;5.18;3.33;;;;;;;24.59;58.30;100271.09;5080518;28;20043;-64
2022/08/05 03:59:20;;;;;;;7.18;3.15;;;;;;;24.01;60.05;100261.63;5071117;28;20385;-64
2022/08/05 04:01:48;;;;;;;7.07;3.85;;;;;;;23.73;61.81;100274.97;5079716;28;20447;-64
2022/08/05 04:04:14;;;;;;;;;;;;;;;23.43;63.33;100263.63;5084737;28;20036;-63
2022/08/05 04:06:40;;;;;;;8.27;4.20;;;;;;;23.12;65.78;100281.97;5088442;28;19916;-64
2022/08/05 04:09:06;;;;;;;5.10;3.45;;;;;;;23.04;67.10;100296.63;5080710;28;20406;-64
2022/08/05 04:11:33;;;;;;;6.60;4.10;;;;;;;22.75;67.77;100293.06;5084059;28;20072;-64
2022/08/05 04:13:59;;;;;;;5.95;3.70;;;;;;;22.55;68.58;100322.25;5085663;28;20032;-63
2022/08/05 04:16:24;;;;;;;5.50;3.63;;;;;;;22.39;69.04;100339.97;5081532;28;20055;-64
2022/08/05 04:18:49;;;;;;;5.93;3.60;;;;;;;22.50;67.94;100346.41;5077460;28;20173;-63
2022/08/05 04:21:15;;;;;;;5.53;3.05;;;;;;;22.90;66.33;100349.16;5078991;28;20333;-64
2022/08/05 04:23:42;;;;;;;3.13;2.83;;;;;;;23.25;64.52;100357.19;5080139;28;20389;-64
2022/08/05 04:26:07;;;;;;;4.55;2.30;;;;;;;23.47;63.65;100362.75;5081528;28;20159;-64
2022/08/05 04:28:33;;;;;;;4.00;2.90;;;;;;;23.62;62.81;100369.50;5088040;28;20701;-64
2022/08/05 04:30:59;;;;;;;4.25;2.60;;;;;;;23.69;62.54;100372.84;5083552;28;20698;-64
2022/08/05 04:33:24;;;;;;;3.75;2.50;;;;;;;23.73;61.47;100369.47;5084571;28;20043;-63
2022/08/05 04:35:50;;;;;;;3.70;2.45;;;;;;;23.82;60.76;100367.19;5062176;28;20028;-64
2022/08/05 04:38:15;;;;;;;2.88;2.35;;;;;;;23.89;60.50;100359.75;5075709;28;20071;-64
2022/08/05 04:40:40;;;;;;;4.70;2.30;;;;;;;23.92;59.85;100353.84;5087603;28;20081;-64
2022/08/05 04:43:06;;;;;;;3.30;2.28;;;;;;;23.93;59.63;100362.78;5085882;28;20670;-64
2022/08/05 04:45:33;;;;;;;2.85;2.20;;;;;;;23.92;59.55;100375.47;5082672;28;20500;-64
2022/08/05 04:48:11;;;;;;;3.63;2.33;;;;;;;23.91;59.67;100375.72;5081666;28;20043;-64
2022/08/05 04:50:42;;;;;;;3.17;1.90;;;;;;;23.86;60.06;100392.66;5077443;28;20104;-64
2022/08/05 04:53:08;;;;;;;;;;;;;;;23.82;60.22;100394.19;5082253;28;20036;-64
2022/08/05 04:55:38;;;;;;;4.68;2.30;;;;;;;23.80;59.99;100401.72;5076957;28;19923;-64
2022/08/05 04:58:05;;;;;;;3.47;2.20;;;;;;;23.82;59.57;100406.88;5079165;28;20051;-64
2022/08/05 05:00:34;;;;;;;3.67;2.20;;;;;;;23.87;59.73;100393.47;5084493;28;20037;-64
2022/08/05 05:03:00;;;;;;;3.92;2.45;;;;;;;23.92;59.49;100388.97;5078808;28;20327;-64
2022/08/05 05:05:26;;;;;;;2.97;1.80;;;;;;;23.95;60.11;100391.19;5087009;28;20497;-64
2022/08/05 05:07:52;;;;;;;3.78;2.20;;;;;;;23.97;59.82;100398.22;5082676;28;20095;-64
2022/08/05 05:10:17;;;;;;;4.22;2.70;;;;;;;23.89;60.88;100410.25;5077043;28;20040;-64
2022/08/05 05:12:43;;;;;;;3.27;2.20;;;;;;;23.88;60.26;100414.00;5080070;28;20525;-64
2022/08/05 05:15:09;;;;;;;3.87;2.37;;;;;;;23.85;60.62;100419.91;5084539;28;20359;-64
2022/08/05 05:17:45;;;;;;;3.60;2.20;;;;;;;23.91;60.30;100425.16;5076773;28;20283;-63
2022/08/05 05:20:12;;;;;;;2.95;1.80;;;;;;;24.06;59.96;100423.78;5078493;28;20029;-64
2022/08/05 05:22:38;;;;;;;3.38;1.60;;;;;;;24.19;59.92;100425.34;5077384;28;20032;-64
2022/08/05 05:25:04;;;;;;;5.18;2.00;;;;;;;24.29;59.67;100422.84;5060644;28;20083;-64
2022/08/05 05:27:31;;;;;;;2.58;2.00;;;;;;;24.34;59.56;100426.44;5074041;28;20102;-64
2022/08/05 05:29:57;;;;;;;3.20;2.10;;;;;;;24.34;60.27;100458.84;5076069;28;20405;-64
2022/08/05 05:32:22;;;;;;;3.95;2.20;;;;;;;24.34;59.99;100461.56;5086721;28;20036;-64
2022/08/05 05:34:48;;;;;;;2.80;1.92;;;;;;;24.43;59.70;100450.31;5081279;28;20032;-64
2022/08/05 05:37:16;;;;;;;3.00;1.80;;;;;;;24.59;59.22;100419.81;5078759;28;20883;-64
2022/08/05 05:39:42;;;;;;;2.78;2.10;;;;;;;24.71;59.38;100417.00;5079387;28;20115;-64
2022/08/05 05:42:07;;;;;;;4.47;2.13;;;;;;;24.84;58.91;100413.97;5077568;28;20485;-66
2022/08/05 05:44:33;;;;;;;3.78;2.15;;;;;;;25.01;58.81;100413.91;5084702;28;20036;-65
2022/08/05 05:46:59;;;;;;;4.68;2.50;;;;;;;25.29;58.47;100425.66;5078578;28;20044;-64
2022/08/05 05:49:25;;;;;;;5.30;2.30;;;;;;;25.62;57.72;100411.13;5096273;28;20366;-65
2022/08/05 05:51:50;;;;;;;2.55;1.70;;;;;;;25.84;57.65;100403.00;5060838;28;20063;-65
2022/08/05 05:54:15;;;;;;;2.88;2.20;;;;;;;26.09;56.71;100393.47;5084750;28;20112;-65
2022/08/05 05:56:41;;;;;;;3.90;2.10;;;;;;;26.35;56.19;100408.88;5081005;28;20051;-65
2022/08/05 05:59:06;;;;;;;3.03;1.83;;;;;;;26.71;55.59;100406.44;5084790;28;21363;-65
2022/08/05 06:01:33;;;;;;;3.78;1.80;;;;;;;27.06;55.09;100411.25;5081076;28;20542;-65
2022/08/05 06:03:59;;;;;;;3.88;1.80;;;;;;;27.45;54.03;100416.31;5078808;28;20041;-65
2022/08/05 06:06:24;;;;;;;2.77;1.80;;;;;;;27.89;51.93;100409.66;5073466;28;20389;-65
2022/08/05 06:08:49;;;;;;;3.13;1.90;;;;;;;28.05;52.23;100410.47;5080838;28;20496;-65
2022/08/05 06:11:15;;;;;;;3.10;1.60;;;;;;;28.57;50.99;100412.09;5075773;28;20404;-65
2022/08/05 06:13:40;;;;;;;;;;;;;;;28.08;50.77;100394.44;5083203;28;20299;-64
2022/08/05 06:16:05;;;;;;;;;;;;;;;27.69;51.07;100384.03;5079478;28;19916;-66
2022/08/05 06:18:31;;;;;;;3.73;1.90;;;;;;;27.28;51.46;100383.94;5076933;28;19923;-65
2022/08/05 06:20:56;;;;;;;3.15;2.00;;;;;;;27.01;51.89;100383.28;5078247;28;20290;-65
2022/08/05 06:23:21;;;;;;;2.63;1.77;;;;;;;26.90;52.33;100366.13;5101520;28;20039;-65
2022/08/05 06:25:47;;;;;;;3.83;2.00;;;;;;;26.95;52.31;100373.47;5108326;28;20283;-65
2022/08/05 06:28:13;;;;;;;2.70;1.80;;;;;;;27.34;52.09;100384.78;5083451;28;20081;-65
2022/08/05 06:30:38;;;;;;;3.70;2.00;;;;;;;27.56;51.75;100379.13;5078582;28;20068;-65
2022/08/05 06:33:03;;;;;;;2.40;1.95;;;;;;;27.96;50.42;100366.72;5077629;28;20037;-65
2022/08/05 06:35:29;;;;;;;3.70;1.92;;;;;;;28.41;50.37;100361.50;5085765;28;20028;-65
2022/08/05 06:37:54;;;;;;;2.10;1.70;;;;;;;28.95;49.07;100382.63;5089593;28;20118;-66
2022/08/05 06:40:19;;;;;;;4.30;1.90;;;;;;;29.20;48.14;100370.84;5084446;28;20298;-66
2022/08/05 06:42:45;;;;;;;3.90;1.85;;;;;;;29.60;46.84;100363.50;5079921;28;20271;-65
2022/08/05 06:45:10;;;;;;;2.15;1.80;;;;;;;29.80;45.83;100360.69;5092251;28;20515;-65
2022/08/05 06:47:36;;;;;;;4.60;2.00;;;;;;;30.15;45.35;100358.78;5067620;28;20084;-65
2022/08/05 06:50:01;;;;;;;2.45;1.70;;;;;;;30.22;44.53;100352.97;5092425;28;20312;-65
2022/08/05 06:52:26;;;;;;;4.20;2.00;;;;;;;30.48;44.40;100367.19;5089068;28;20036;-65
2022/08/05 06:54:51;;;;;;;3.10;1.52;;;;;;;30.97;43.61;100379.78;5080301;28;20303;-66
2022/08/05 06:57:17;;;;;;;2.20;1.40;;;;;;;31.58;42.75;100385.56;5084957;28;20040;-65
2022/08/05 06:59:43;;;;;;;2.75;1.50;;;;;;;32.15;41.32;100389.06;5089252;28;20329;-65
2022/08/05 07:02:09;;;;;;;2.75;1.38;;;;;;;32.47;40.09;100396.44;5085840;28;20102;-65
2022/08/05 07:04:35;;;;;;;2.63;1.40;;;;;;;32.75;39.49;100408.25;5088081;28;20105;-65
2022/08/05 07:07:00;;;;;;;3.75;1.50;;;;;;;33.27;38.39;100415.44;5065117;28;20496;-66
2022/08/05 07:09:25;;;;;;;2.30;1.40;;;;;;;33.73;37.51;100412.53;5079295;28;20028;-66
2022/08/05 07:11:51;;;;;;;3.00;1.50;;;;;;;34.11;36.92;100436.06;5087261;28;20555;-66
2022/08/05 07:17:01;;;;;;;3.03;1.27;;;;;;;34.54;35.53;100439.09;5086667;28;20127;-66
2022/08/05 07:19:30;;;;;;;2.10;1.45;;;;;;;34.19;35.26;100443.56;5077056;28;20135;-65
2022/08/05 07:21:56;;;;;;;2.38;1.60;;;;;;;33.67;35.56;100449.41;5085663;28;20032;-66
2022/08/05 07:24:22;;;;;;;2.85;1.63;;;;;;;33.33;36.12;100447.94;5098376;28;21044;-66
2022/08/05 07:26:47;;;;;;;3.60;1.58;;;;;;;33.24;36.73;100447.03;5099777;28;20106;-65
2022/08/05 07:29:13;;;;;;;2.83;1.50;;;;;;;33.61;36.46;100448.72;5075533;28;20408;-65
2022/08/05 07:31:39;;;;;;;1.85;1.30;;;;;;;34.31;36.21;100460.28;5103816;28;20197;-66
2022/08/05 07:34:04;;;;;;;3.60;1.42;;;;;;;34.92;34.49;100459.78;5088710;28;20046;-66
2022/08/05 07:36:32;;;;;;;3.15;1.80;;;;;;;34.79;33.61;100461.53;5106845;28;20115;-66
2022/08/05 07:39:01;;;;;;;3.33;1.50;;;;;;;34.26;34.02;100457.66;5092866;28;20113;-66
2022/08/05 07:41:26;;;;;;;3.67;1.65;;;;;;;33.71;34.13;100383.81;5109309;28;20028;-66
2022/08/05 07:43:53;;;;;;;4.35;1.75;;;;;;;33.46;34.44;100364.03;5093407;28;20039;-65
2022/08/05 07:46:18;;;;;;;3.35;1.70;;;;;;;33.30;34.28;100349.06;5097942;28;20036;-66
2022/08/05 07:48:43;;;;;;;2.45;1.60;;;;;;;32.89;34.38;100320.59;5093475;28;20385;-66
2022/08/05 07:51:09;;;;;;;2.90;1.67;;;;;;;32.58;34.36;100321.25;5089970;28;20120;-65
2022/08/05 07:53:35;;;;;;;2.78;1.52;;;;;;;32.43;34.73;100350.81;5085755;28;20679;-65
2022/08/05 07:56:04;;;;;;;2.40;1.45;;;;;;;32.35;34.62;100342.19;5081394;28;20131;-65
2022/08/05 07:58:29;;;;;;;3.03;1.40;;;;;;;32.35;34.70;100333.97;5091199;28;20398;-65
2022/08/05 08:00:55;;;;;;;2.70;1.30;;;;;;;32.58;33.69;100332.19;5094520;28;20100;-65
2022/08/05 08:03:20;;;;;;;2.85;1.60;;;;;;;32.51;33.42;100337.28;5093833;28;20089;-65
2022/08/05 08:05:45;;;;;;;3.20;1.50;;;;;;;32.22;34.37;100274.56;5097881;28;20040;-65
2022/08/05 08:08:12;;;;;;;2.13;1.25;;;;;;;31.92;35.15;100353.31;5086735;28;20117;-65
2022/08/05 08:10:38;;;;;;;1.83;1.35;;;;;;;31.55;35.58;100364.28;5086936;28;20036;-65
2022/08/05 08:13:03;;;;;;;3.50;1.50;;;;;;;31.13;36.38;100365.94;5091962;28;20623;-65
2022/08/05 08:15:29;;;;;;;2.42;1.40;;;;;;;30.82;36.58;100341.69;5063599;28;20556;-65
2022/08/05 08:17:55;;;;;;;2.25;1.45;;;;;;;30.58;36.79;100325.34;5088638;28;20068;-65
2022/08/05 08:20:21;;;;;;;3.60;1.60;;;;;;;30.36;37.05;100334.03;5083199;28;20060;-65
2022/08/05 08:22:56;;;;;;;3.35;1.60;;;;;;;30.34;37.34;100320.69;5090603;28;20062;-65
2022/08/05 08:25:22;;;;;;;3.45;1.52;;;;;;;30.39;37.39;100366.19;5082524;28;20028;-65
2022/08/05 08:27:47;;;;;;;2.10;1.30;;;;;;;30.23;37.13;100373.69;5098572;28;20032;-65
2022/08/05 08:30:14;;;;;;;2.10;1.58;;;;;;;30.04;37.74;100354.50;5094365;28;20409;-65
2022/08/05 08:32:39;;;;;;;3.45;1.60;;;;;;;29.99;38.30;100365.47;5090268;28;20111;-65
2022/08/05 08:35:06;;;;;;;4.45;1.70;;;;;;;29.94;38.55;100340.94;5084638;28;20615;-65
2022/08/05 08:37:31;;;;;;;1.90;1.40;;;;;;;29.79;38.52;100337.25;5088149;28;20116;-65
2022/08/05 08:39:56;;;;;;;2.45;1.50;;;;;;;;;;5072257;28;20079;-65
2022/08/05 08:42:22;;;;;;;5.50;1.60;;;;;;;;;;5085154;28;20393;-65
2022/08/05 08:44:48;;;;;;;2.63;1.53;;;;;;;29.46;nan;100387.84;5091125;28;20036;-65
2022/08/05 08:47:15;;;;;;;3.85;1.38;;;;;;;29.24;nan;100325.59;5090138;28;20028;-65
2022/08/05 08:49:44;;;;;;;2.17;1.50;;;;;;;29.07;nan;100436.78;5082700;28;20027;-65
2022/08/05 08:52:18;;;;;;;4.00;1.60;;;;;;;28.40;nan;100415.09;5085365;28;20059;-65
2022/08/05 08:54:44;;;;;;;6.85;1.88;;;;;;;27.06;nan;100377.88;5088074;28;20034;-65
2022/08/05 08:57:10;;;;;;;2.83;1.48;;;;;;;26.64;nan;100381.44;5084428;28;20047;-65
2022/08/05 08:59:36;;;;;;;2.78;1.40;;;;;;;26.20;nan;100385.19;5098532;28;20021;-65
2022/08/05 09:02:05;;;;;;;3.22;1.50;;;;;;;26.01;nan;100392.88;5079570;28;20090;-65
2022/08/05 09:04:32;;;;;;;3.20;1.30;;;;;;;26.31;nan;100407.75;5085861;28;20143;-65
2022/08/05 09:06:58;;;;;;;2.60;1.20;;;;;;;27.15;nan;100394.44;5085453;28;20040;-65
2022/08/05 09:09:23;;;;;;;2.85;1.17;;;;;;;27.78;nan;100388.94;5082003;28;20373;-65
2022/08/05 09:11:48;;;;;;;1.83;1.30;;;;;;;28.22;nan;100336.78;5077730;28;20524;-65
2022/08/05 09:14:14;;;;;;;3.10;1.55;;;;;;;27.82;nan;100333.81;5081172;28;20058;-65
2022/08/05 09:16:40;;;;;;;2.72;1.70;;;;;;;26.60;nan;100345.91;5087524;28;20395;-65
2022/08/05 09:19:07;;;;;;;3.42;1.83;;;;;;;25.78;nan;100355.25;5080779;28;20504;-65
2022/08/05 09:21:33;;;;;;;3.30;1.95;;;;;;;25.71;nan;100357.34;5078074;28;20144;-65
2022/08/05 09:24:06;;;;;;;3.03;1.90;;;;;;;26.67;nan;100389.03;5081262;28;20067;-65
2022/08/05 09:26:31;;;;;;;4.22;2.10;;;;;;;27.85;nan;100401.22;5086234;28;20035;-65
2022/08/05 09:29:03;;;;;;;2.42;1.60;;;;;;;30.04;nan;100434.38;5085717;28;20036;-65
2022/08/05 09:31:30;;;;;;;5.80;1.60;;;;;;;31.92;nan;100427.16;5080176;28;20072;-65
2022/08/05 09:33:59;;;;;;;3.75;1.33;;;;;;;33.02;nan;100436.75;5078662;28;20063;-65
2022/08/05 09:36:38;;;;;;;4.03;1.50;;;;;;;33.75;nan;100442.38;5083976;28;20032;-65
2022/08/05 09:39:09;;;;;;;2.88;1.50;;;;;;;34.39;nan;100431.25;5086545;28;20549;-66
2022/08/05 09:42:03;;;;;;;3.00;1.45;;;;;;;34.71;nan;100430.16;5086638;28;20400;-66
2022/08/05 09:44:40;;;;;;;1.67;1.00;;;;;;;35.77;nan;100350.31;5068712;28;20271;-66
2022/08/05 09:47:08;;;;;;;1.52;1.00;;;;;;;36.98;nan;100340.81;5065422;28;20040;-66
2022/08/05 09:49:33;;;;;;;1.27;0.90;;;;;;;38.11;nan;100361.16;5086640;28;20072;-66
2022/08/05 09:52:15;;;;;;;1.17;0.90;;;;;;;38.82;nan;100340.63;5083562;28;20497;-66
2022/08/05 09:54:51;;;;;;;0.98;0.80;;;;;;;39.69;nan;100379.97;5077107;28;20043;-64
2022/08/05 09:57:38;;;;;;;2.67;1.30;;;;;;;39.73;nan;100361.50;5082363;28;20032;-64
2022/08/05 10:00:10;;;;;;;2.60;1.30;;;;;;;39.94;nan;100358.53;5082774;28;20562;-65
2022/08/05 10:02:41;;;;;;;1.80;0.90;;;;;;;40.33;nan;100365.13;5081993;28;20044;-64
2022/08/05 10:05:10;;;;;;;1.90;1.17;;;;;;;40.60;nan;100372.88;5073536;28;20496;-64
2022/08/05 10:08:03;;;;;;;2.25;1.33;;;;;;;40.61;nan;100358.66;5083845;28;20477;-64
2022/08/05 10:10:47;;;;;;;2.30;1.33;;;;;;;40.97;nan;100354.75;5071290;28;20036;-64
2022/08/05 10:13:28;;;;;;;1.60;0.88;;;;;;;41.50;nan;100342.38;5074572;28;20040;-64
2022/08/05 10:15:55;;;;;;;2.20;1.23;;;;;;;40.94;nan;100354.69;5080245;28;20042;-64
2022/08/05 10:18:21;;;;;;;1.55;1.10;;;;;;;40.96;nan;100349.59;5074110;28;20032;-65
2022/08/05 10:20:59;;;;;;;2.17;1.33;;;;;;;41.08;nan;100410.47;5078085;28;20043;-64
2022/08/05 10:23:34;;;;;;;3.08;1.38;;;;;;;42.04;nan;100429.56;5073161;28;20318;-64
2022/08/05 10:26:05;;;;;;;1.75;1.10;;;;;;;41.80;nan;100434.25;5077180;28;20056;-64
2022/08/05 10:28:31;;;;;;;2.13;1.20;;;;;;;42.13;nan;100442.06;5073499;28;20508;-64
2022/08/05 10:30:59;;;;;;;1.80;0.95;;;;;;;42.85;nan;100449.69;5079037;28;20044;-64
2022/08/05 10:33:28;;;;;;;2.92;1.10;;;;;;;43.43;nan;100454.16;5081154;28;20097;-64
2022/08/05 10:35:54;;;;;;;2.53;1.33;;;;;;;43.20;nan;100443.09;5077603;28;20041;-64
2022/08/05 10:38:21;;;;;;;1.88;1.17;;;;;;;42.76;nan;100453.88;5077608;28;20051;-64
2022/08/05 10:40:53;;;;;;;1.45;1.10;;;;;;;42.63;nan;100458.84;5080613;28;20040;-64
2022/08/05 10:43:46;;;;;;;2.20;1.20;;;;;;;42.90;nan;100456.91;5074571;28;20040;-64
2022/08/05 10:46:13;;;;;;;1.95;1.05;;;;;;;42.69;nan;100462.91;5066646;28;20592;-65
2022/08/05 10:48:41;;;;;;;1.60;1.10;;;;;;;42.12;nan;100454.34;5080447;28;20032;-64
2022/08/05 10:51:09;;;;;;;2.53;1.27;;;;;;;40.38;nan;100455.50;5085957;28;20043;-64
2022/08/05 10:53:35;;;;;;;1.88;1.50;;;;;;;39.83;nan;100454.31;5071260;28;20119;-64
2022/08/05 10:56:03;;;;;;;2.55;1.33;;;;;;;40.81;nan;100455.78;5076564;28;20036;-64
2022/08/05 10:58:28;;;;;;;2.35;1.25;;;;;;;41.66;nan;100453.41;5080045;28;20029;-64
2022/08/05 11:00:54;;;;;;;2.20;1.40;;;;;;;42.46;nan;100459.34;5063076;28;20029;-64
2022/08/05 11:03:20;;;;;;;1.65;1.20;;;;;;;43.17;nan;100443.81;5079128;28;20040;-64
2022/08/05 11:06:06;;;;;;;1.88;1.20;;;;;;;43.52;nan;100426.00;5081030;28;20373;-64
2022/08/05 11:08:32;;;;;;;2.58;1.50;;;;;;;43.73;nan;100419.91;5087122;28;20036;-64
2022/08/05 11:11:35;;;;;;;1.98;1.30;;;;;;;43.96;nan;100424.56;5084121;28;20055;-65
2022/08/05 11:14:02;;;;;;;1.70;1.40;;;;;;;44.23;nan;100433.59;5088095;28;20048;-64
2022/08/05 11:16:28;;;;;;;2.10;1.50;;;;;;;42.84;nan;100439.75;5087561;28;20364;-64
2022/08/05 11:19:29;;;;;;;1.60;1.20;;;;;;;40.76;nan;100451.31;5087289;28;20044;-64
2022/08/05 11:21:55;;;;;;;2.33;1.27;;;;;;;40.47;nan;100452.53;5081661;28;20036;-64
2022/08/05 11:24:22;;;;;;;3.22;1.40;;;;;;;41.23;nan;100453.25;5077511;28;20043;-64
2022/08/05 11:26:48;;;;;;;2.17;1.30;;;;;;;42.22;nan;100464.06;5084165;28;20543;-64
2022/08/05 11:29:34;;;;;;;2.65;1.45;;;;;;;42.45;nan;100472.44;5083515;28;20035;-64
2022/08/05 11:32:25;;;;;;;2.08;1.25;;;;;;;42.77;nan;100469.41;5079460;28;20051;-64
2022/08/05 11:34:50;;;;;;;2.10;1.65;;;;;;;41.36;nan;100468.59;5071435;28;20078;-64
2022/08/05 11:37:53;;;;;;;1.50;1.25;;;;;;;40.83;nan;100470.88;5081269;28;20105;-64
2022/08/05 11:40:19;;;;;;;2.58;1.50;;;;;;;39.16;nan;100471.25;4998134;28;20134;-64